Time,TemperatureF,DewpointF,PressureIn,WindDirection,WindDirectionDegrees,WindSpeedMPH,WindSpeedGustMPH,Humidity,HourlyPrecipIn,Conditions,Clouds,dailyrainin,SoftwareType,DateUTC
2013-01-18 00:02:00,22.1,15.4,29.95,NNW,338,0.0,0.0,75,0.00,,---,0.00,VWS V14.00,2013-01-18 06:02:00,
2013-01-18 00:07:00,21.9,15.2,29.96,NNW,338,0.0,0.0,75,0.00,,---,0.00,VWS V14.00,2013-01-18 06:07:00,
2013-01-18 00:12:00,21.9,15.2,29.95,NW,315,0.0,0.0,75,0.00,,---,0.00,VWS V14.00,2013-01-18 06:12:00,
2013-01-18 00:17:00,21.9,15.2,29.96,NW,315,0.0,0.0,75,0.00,,---,0.00,VWS V14.00,2013-01-18 06:17:00,
2013-01-18 00:22:00,21.9,15.2,29.96,NW,315,0.0,0.0,75,0.00,,---,0.00,VWS V14.00,2013-01-18 06:22:00,
2013-01-18 00:27:00,21.9,15.5,29.96,NW,315,0.0,0.0,76,0.00,,---,0.00,VWS V14.00,2013-01-18 06:27:00,
2013-01-18 00:32:00,21.9,15.5,29.96,NW,315,0.0,0.0,76,0.00,,---,0.00,VWS V14.00,2013-01-18 06:32:00,
2013-01-18 00:37:00,21.9,15.5,29.96,NW,315,0.0,0.0,76,0.00,,---,0.00,VWS V14.00,2013-01-18 06:37:00,
2013-01-18 00:42:00,21.9,15.5,29.96,NW,315,0.0,0.0,76,0.00,,---,0.00,VWS V14.00,2013-01-18 06:42:00,
2013-01-18 00:47:00,21.9,15.5,29.96,NW,315,0.0,0.0,76,0.00,,---,0.00,VWS V14.00,2013-01-18 06:47:00,
2013-01-18 00:52:00,21.9,15.5,29.96,NW,315,0.0,0.0,76,0.00,,---,0.00,VWS V14.00,2013-01-18 06:52:00,
2013-01-18 00:57:00,21.7,15.3,29.96,NW,315,0.0,0.0,76,0.00,,---,0.00,VWS V14.00,2013-01-18 06:57:00,
2013-01-18 01:02:00,21.7,15.3,29.96,NW,315,0.0,0.0,76,0.00,,---,0.00,VWS V14.00,2013-01-18 07:02:00,
2013-01-18 01:07:00,21.9,15.5,29.96,NW,315,0.0,0.0,76,0.00,,---,0.00,VWS V14.00,2013-01-18 07:07:00,
2013-01-18 01:12:00,21.9,15.8,29.96,West,270,0.0,0.0,77,0.00,,---,0.00,VWS V14.00,2013-01-18 07:12:00,
2013-01-18 01:17:00,21.9,15.8,29.96,West,270,0.0,0.0,77,0.00,,---,0.00,VWS V14.00,2013-01-18 07:17:00,
2013-01-18 01:22:00,21.9,15.8,29.95,West,270,0.0,0.0,77,0.00,,---,0.00,VWS V14.00,2013-01-18 07:22:00,
2013-01-18 01:27:00,21.9,15.8,29.95,West,270,0.0,0.0,77,0.00,,---,0.00,VWS V14.00,2013-01-18 07:27:00,
2013-01-18 01:32:00,21.9,15.8,29.96,WSW,248,0.0,0.0,77,0.00,,---,0.00,VWS V14.00,2013-01-18 07:32:00,
2013-01-18 01:38:00,21.9,15.8,29.96,WSW,248,0.0,0.0,77,0.00,,---,0.00,VWS V14.00,2013-01-18 07:38:00,
2013-01-18 01:43:00,21.9,15.8,29.96,WSW,248,0.0,0.0,77,0.00,,---,0.00,VWS V14.00,2013-01-18 07:43:00,
2013-01-18 01:48:00,21.9,15.8,29.96,WSW,248,0.0,0.0,77,0.00,,---,0.00,VWS V14.00,2013-01-18 07:48:00,
2013-01-18 01:53:00,21.9,15.8,29.96,WSW,248,0.0,0.0,77,0.00,,---,0.00,VWS V14.00,2013-01-18 07:53:00,
2013-01-18 01:58:00,21.9,15.8,29.96,WSW,248,0.0,0.0,77,0.00,,---,0.00,VWS V14.00,2013-01-18 07:58:00,
2013-01-18 02:03:00,21.9,15.8,29.95,WSW,248,0.0,0.0,77,0.00,,---,0.00,VWS V14.00,2013-01-18 08:03:00,
2013-01-18 02:08:00,21.9,15.8,29.95,WSW,248,0.0,0.0,77,0.00,,---,0.00,VWS V14.00,2013-01-18 08:08:00,
2013-01-18 02:13:00,21.7,15.6,29.95,SW,225,0.0,0.0,77,0.00,,---,0.00,VWS V14.00,2013-01-18 08:13:00,
2013-01-18 02:18:00,21.7,15.6,29.95,SW,225,0.0,0.0,77,0.00,,---,0.00,VWS V14.00,2013-01-18 08:18:00,
2013-01-18 02:23:00,21.5,15.4,29.95,SW,225,0.0,0.0,77,0.00,,---,0.00,VWS V14.00,2013-01-18 08:23:00,
2013-01-18 02:28:00,21.5,15.4,29.95,SW,225,0.0,0.0,77,0.00,,---,0.00,VWS V14.00,2013-01-18 08:28:00,
2013-01-18 02:33:00,21.5,15.4,29.95,SW,225,0.0,0.0,77,0.00,,---,0.00,VWS V14.00,2013-01-18 08:33:00,
2013-01-18 02:38:00,21.7,15.9,29.96,SW,225,0.0,0.0,78,0.00,,---,0.00,VWS V14.00,2013-01-18 08:38:00,
2013-01-18 02:43:00,21.7,15.9,29.95,SW,225,0.0,0.0,78,0.00,,---,0.00,VWS V14.00,2013-01-18 08:43:00,
2013-01-18 02:48:00,21.9,16.1,29.95,SW,225,0.0,0.0,78,0.00,,---,0.00,VWS V14.00,2013-01-18 08:48:00,
2013-01-18 02:53:00,21.9,16.1,29.95,SSW,202,0.0,0.0,78,0.00,,---,0.00,VWS V14.00,2013-01-18 08:53:00,
2013-01-18 02:58:00,21.9,16.1,29.95,SW,225,0.0,0.0,78,0.00,,---,0.00,VWS V14.00,2013-01-18 08:58:00,
2013-01-18 03:03:00,22.1,16.3,29.95,SSW,202,0.0,0.0,78,0.00,,---,0.00,VWS V14.00,2013-01-18 09:03:00,
2013-01-18 03:08:00,22.1,16.3,29.95,SSW,202,0.0,0.0,78,0.00,,---,0.00,VWS V14.00,2013-01-18 09:08:00,
2013-01-18 03:13:00,22.1,16.3,29.95,SSW,202,0.0,0.0,78,0.00,,---,0.00,VWS V14.00,2013-01-18 09:13:00,
2013-01-18 03:18:00,22.2,16.4,29.94,SSW,202,0.0,0.0,78,0.00,,---,0.00,VWS V14.00,2013-01-18 09:18:00,
2013-01-18 03:23:00,22.2,16.4,29.94,SSW,202,0.0,0.0,78,0.00,,---,0.00,VWS V14.00,2013-01-18 09:23:00,
2013-01-18 03:29:00,22.4,16.6,29.94,SSW,202,0.0,0.0,78,0.00,,---,0.00,VWS V14.00,2013-01-18 09:29:00,
2013-01-18 03:34:00,22.4,16.6,29.94,SSW,202,0.0,0.0,78,0.00,,---,0.00,VWS V14.00,2013-01-18 09:34:00,
2013-01-18 03:40:00,22.6,16.8,29.93,SSW,202,0.0,0.0,78,0.00,,---,0.00,VWS V14.00,2013-01-18 09:40:00,
2013-01-18 03:45:00,22.6,16.8,29.93,SSW,202,0.0,0.0,78,0.00,,---,0.00,VWS V14.00,2013-01-18 09:45:00,
2013-01-18 03:50:00,22.8,17.3,29.93,SSW,202,0.0,0.0,79,0.00,,---,0.00,VWS V14.00,2013-01-18 09:50:00,
2013-01-18 03:55:00,22.8,17.3,29.93,SSW,202,1.7,1.7,79,0.00,,---,0.00,VWS V14.00,2013-01-18 09:55:00,
2013-01-18 04:01:00,22.8,17.3,29.93,SSW,202,0.0,0.0,79,0.00,,---,0.00,VWS V14.00,2013-01-18 10:01:00,
2013-01-18 04:06:00,22.8,17.3,29.93,SSW,202,0.0,0.0,79,0.00,,---,0.00,VWS V14.00,2013-01-18 10:06:00,
2013-01-18 04:11:00,22.6,17.1,29.94,SSW,202,0.0,0.0,79,0.00,,---,0.00,VWS V14.00,2013-01-18 10:11:00,
2013-01-18 04:17:00,22.6,17.1,29.93,SSW,202,0.0,0.0,79,0.00,,---,0.00,VWS V14.00,2013-01-18 10:17:00,
2013-01-18 04:22:00,22.4,16.9,29.93,SSW,202,0.0,0.0,79,0.00,,---,0.00,VWS V14.00,2013-01-18 10:22:00,
2013-01-18 04:27:00,22.4,16.9,29.93,SSW,202,0.0,0.0,79,0.00,,---,0.00,VWS V14.00,2013-01-18 10:27:00,
2013-01-18 04:32:00,22.2,16.7,29.93,SSW,202,0.0,0.0,79,0.00,,---,0.00,VWS V14.00,2013-01-18 10:32:00,
2013-01-18 04:37:00,22.2,16.7,29.93,SSW,202,0.0,0.0,79,0.00,,---,0.00,VWS V14.00,2013-01-18 10:37:00,
2013-01-18 04:42:00,22.2,16.7,29.93,South,180,0.0,0.0,79,0.00,,---,0.00,VWS V14.00,2013-01-18 10:42:00,
2013-01-18 04:47:00,22.4,16.9,29.93,South,180,0.0,0.0,79,0.00,,---,0.00,VWS V14.00,2013-01-18 10:47:00,
2013-01-18 04:53:00,22.4,16.9,29.93,South,180,0.0,0.0,79,0.00,,---,0.00,VWS V14.00,2013-01-18 10:53:00,
2013-01-18 04:59:00,22.6,17.1,29.93,South,180,2.4,2.4,79,0.00,,---,0.00,VWS V14.00,2013-01-18 10:59:00,
2013-01-18 05:04:00,22.6,17.1,29.93,South,180,0.0,0.0,79,0.00,,---,0.00,VWS V14.00,2013-01-18 11:04:00,
2013-01-18 05:09:00,22.6,17.1,29.93,SSW,202,0.0,0.0,79,0.00,,---,0.00,VWS V14.00,2013-01-18 11:09:00,
2013-01-18 05:14:00,22.8,17.6,29.93,SSW,202,3.8,3.8,80,0.00,,---,0.00,VWS V14.00,2013-01-18 11:14:00,
2013-01-18 05:19:00,22.8,17.6,29.93,SSW,202,2.9,2.9,80,0.00,,---,0.00,VWS V14.00,2013-01-18 11:19:00,
2013-01-18 05:24:00,23.0,17.8,29.93,SSW,202,3.3,3.3,80,0.00,,---,0.00,VWS V14.00,2013-01-18 11:24:00,
2013-01-18 05:29:00,23.1,17.9,29.93,SSW,202,2.0,2.0,80,0.00,,---,0.00,VWS V14.00,2013-01-18 11:29:00,
2013-01-18 05:34:00,23.3,18.1,29.92,SSW,202,0.0,2.2,80,0.00,,---,0.00,VWS V14.00,2013-01-18 11:34:00,
2013-01-18 05:39:00,23.3,18.1,29.92,SSW,202,2.9,2.9,80,0.00,,---,0.00,VWS V14.00,2013-01-18 11:39:00,
2013-01-18 05:44:00,23.5,18.2,29.92,South,180,4.0,4.0,80,0.00,,---,0.00,VWS V14.00,2013-01-18 11:44:00,
2013-01-18 05:49:00,23.3,18.1,29.92,South,180,4.2,4.2,80,0.00,,---,0.00,VWS V14.00,2013-01-18 11:49:00,
2013-01-18 05:54:00,23.5,18.2,29.92,South,180,0.0,0.0,80,0.00,,---,0.00,VWS V14.00,2013-01-18 11:54:00,
2013-01-18 05:59:00,23.5,18.2,29.92,South,180,0.0,0.0,80,0.00,,---,0.00,VWS V14.00,2013-01-18 11:59:00,
2013-01-18 06:04:00,23.5,18.2,29.91,South,180,3.3,3.3,80,0.00,,---,0.00,VWS V14.00,2013-01-18 12:04:00,
2013-01-18 06:09:00,23.5,18.2,29.91,South,180,4.0,4.0,80,0.00,,---,0.00,VWS V14.00,2013-01-18 12:09:00,
2013-01-18 06:14:00,23.5,18.2,29.91,South,180,3.5,4.0,80,0.00,,---,0.00,VWS V14.00,2013-01-18 12:14:00,
2013-01-18 06:19:00,23.5,18.2,29.91,South,180,3.5,4.2,80,0.00,,---,0.00,VWS V14.00,2013-01-18 12:19:00,
2013-01-18 06:24:00,23.5,18.2,29.91,South,180,2.9,5.1,80,0.00,,---,0.00,VWS V14.00,2013-01-18 12:24:00,
2013-01-18 06:29:00,23.5,18.2,29.91,South,180,3.1,3.1,80,0.00,,---,0.00,VWS V14.00,2013-01-18 12:29:00,
2013-01-18 06:34:00,23.7,18.5,29.91,South,180,2.0,3.3,80,0.00,,---,0.00,VWS V14.00,2013-01-18 12:34:00,
2013-01-18 06:39:00,23.7,18.5,29.91,South,180,3.5,3.5,80,0.00,,---,0.00,VWS V14.00,2013-01-18 12:39:00,
2013-01-18 06:44:00,23.7,18.5,29.91,SSW,202,4.9,4.9,80,0.00,,---,0.00,VWS V14.00,2013-01-18 12:44:00,
2013-01-18 06:49:00,23.9,18.6,29.92,SSW,202,6.0,6.0,80,0.00,,---,0.00,VWS V14.00,2013-01-18 12:49:00,
2013-01-18 06:54:00,24.0,18.7,29.91,SSW,202,4.2,6.2,80,0.00,,---,0.00,VWS V14.00,2013-01-18 12:54:00,
2013-01-18 06:59:00,24.4,19.1,29.92,SSW,202,4.2,4.2,80,0.00,,---,0.00,VWS V14.00,2013-01-18 12:59:00,
2013-01-18 07:04:00,24.4,19.1,29.92,SSW,202,5.1,5.1,80,0.00,,---,0.00,VWS V14.00,2013-01-18 13:04:00,
2013-01-18 07:09:00,24.4,19.1,29.92,SSW,202,3.1,3.5,80,0.00,,---,0.00,VWS V14.00,2013-01-18 13:09:00,
2013-01-18 07:14:00,24.6,19.3,29.91,SSW,202,0.8,3.5,80,0.00,,---,0.00,VWS V14.00,2013-01-18 13:14:00,
2013-01-18 07:19:00,24.6,19.3,29.91,SSW,202,2.4,2.4,80,0.00,,---,0.00,VWS V14.00,2013-01-18 13:19:00,
2013-01-18 07:24:00,24.6,19.3,29.92,South,180,5.5,5.5,80,0.00,,---,0.00,VWS V14.00,2013-01-18 13:24:00,
2013-01-18 07:29:00,24.6,19.3,29.92,South,180,3.8,3.8,80,0.00,,---,0.00,VWS V14.00,2013-01-18 13:29:00,
2013-01-18 07:34:00,24.9,19.6,29.91,South,180,5.5,6.0,80,0.00,,---,0.00,VWS V14.00,2013-01-18 13:34:00,
2013-01-18 07:39:00,25.1,19.8,29.91,South,180,5.3,5.5,80,0.00,,---,0.00,VWS V14.00,2013-01-18 13:39:00,
2013-01-18 07:44:00,25.5,20.2,29.91,South,180,5.8,5.8,80,0.00,,---,0.00,VWS V14.00,2013-01-18 13:44:00,
2013-01-18 07:49:00,26.0,20.7,29.91,South,180,8.0,8.7,80,0.00,,---,0.00,VWS V14.00,2013-01-18 13:49:00,
2013-01-18 07:54:00,26.4,21.1,29.90,South,180,7.6,9.3,80,0.00,,---,0.00,VWS V14.00,2013-01-18 13:54:00,
2013-01-18 07:59:00,27.1,21.5,29.91,SW,225,9.1,9.1,79,0.00,,---,0.00,VWS V14.00,2013-01-18 13:59:00,
2013-01-18 08:04:00,27.5,21.9,29.90,SSW,202,9.8,9.8,79,0.00,,---,0.00,VWS V14.00,2013-01-18 14:04:00,
2013-01-18 08:09:00,28.0,22.3,29.91,SSW,202,7.3,7.3,79,0.00,,---,0.00,VWS V14.00,2013-01-18 14:09:00,
2013-01-18 08:14:00,28.2,22.2,29.91,SSW,202,7.6,8.7,78,0.00,,---,0.00,VWS V14.00,2013-01-18 14:14:00,
2013-01-18 08:19:00,28.7,22.7,29.91,SSE,158,7.8,7.8,78,0.00,,---,0.00,VWS V14.00,2013-01-18 14:19:00,
2013-01-18 08:24:00,29.1,22.8,29.91,South,180,7.8,8.9,77,0.00,,---,0.00,VWS V14.00,2013-01-18 14:24:00,
2013-01-18 08:29:00,29.4,23.1,29.91,South,180,8.7,8.7,77,0.00,,---,0.00,VWS V14.00,2013-01-18 14:29:00,
2013-01-18 08:34:00,30.0,23.7,29.91,SSW,202,7.8,10.2,77,0.00,,---,0.00,VWS V14.00,2013-01-18 14:34:00,
2013-01-18 08:39:00,30.5,23.9,29.91,SSW,202,7.8,8.7,76,0.00,,---,0.00,VWS V14.00,2013-01-18 14:39:00,
2013-01-18 08:44:00,30.9,24.2,29.89,South,180,10.2,10.2,76,0.00,,---,0.00,VWS V14.00,2013-01-18 14:44:00,
2013-01-18 08:49:00,31.4,24.4,29.89,South,180,10.2,10.7,75,0.00,,---,0.00,VWS V14.00,2013-01-18 14:49:00,
2013-01-18 08:54:00,31.8,24.5,29.89,South,180,13.6,13.6,74,0.00,,---,0.00,VWS V14.00,2013-01-18 14:54:00,
2013-01-18 08:59:00,32.3,25.0,29.89,South,180,9.8,12.5,74,0.00,,---,0.00,VWS V14.00,2013-01-18 14:59:00,
2013-01-18 09:04:00,32.7,25.0,29.89,SW,225,13.6,13.6,73,0.00,,---,0.00,VWS V14.00,2013-01-18 15:04:00,
2013-01-18 09:09:00,32.9,24.9,29.89,SSE,158,14.0,14.0,72,0.00,,---,0.00,VWS V14.00,2013-01-18 15:09:00,
2013-01-18 09:14:00,33.4,25.4,29.89,SSW,202,9.3,9.3,72,0.00,,---,0.00,VWS V14.00,2013-01-18 15:14:00,
2013-01-18 09:19:00,33.8,25.4,29.89,South,180,11.1,11.1,71,0.00,,---,0.00,VWS V14.00,2013-01-18 15:19:00,
2013-01-18 09:24:00,34.3,25.9,29.89,South,180,8.9,8.9,71,0.00,,---,0.00,VWS V14.00,2013-01-18 15:24:00,
2013-01-18 09:29:00,34.5,25.7,29.89,SSE,158,11.6,11.6,70,0.00,,---,0.00,VWS V14.00,2013-01-18 15:29:00,
2013-01-18 09:34:00,34.8,25.7,29.89,South,180,13.1,17.4,69,0.00,,---,0.00,VWS V14.00,2013-01-18 15:34:00,
2013-01-18 09:40:00,35.4,26.3,29.89,SW,225,12.9,12.9,69,0.00,,---,0.00,VWS V14.00,2013-01-18 15:40:00,
2013-01-18 09:45:00,35.7,26.2,29.89,SSW,202,8.7,10.0,68,0.00,,---,0.00,VWS V14.00,2013-01-18 15:45:00,
2013-01-18 09:51:00,36.1,26.2,29.89,SSW,202,10.5,12.3,67,0.00,,---,0.00,VWS V14.00,2013-01-18 15:51:00,
2013-01-18 09:56:00,36.3,26.4,29.89,SSE,158,10.2,11.1,67,0.00,,---,0.00,VWS V14.00,2013-01-18 15:56:00,
2013-01-18 10:01:00,36.5,26.2,29.89,SSW,202,12.0,14.9,66,0.00,,---,0.00,VWS V14.00,2013-01-18 16:01:00,
2013-01-18 10:06:00,36.8,26.1,29.89,SW,225,12.5,12.5,65,0.00,,---,0.00,VWS V14.00,2013-01-18 16:06:00,
2013-01-18 10:11:00,37.0,26.3,29.88,South,180,10.9,10.9,65,0.00,,---,0.00,VWS V14.00,2013-01-18 16:11:00,
2013-01-18 13:10:00,43.8,31.6,29.71,South,180,10.0,10.0,62,0.00,,---,0.00,VWS V14.00,2013-01-18 19:10:00,
2013-01-18 13:15:00,43.8,31.2,29.71,SSW,202,12.9,17.4,61,0.00,,---,0.00,VWS V14.00,2013-01-18 19:15:00,
2013-01-18 13:20:00,43.8,31.6,29.71,South,180,12.7,13.1,62,0.00,,---,0.00,VWS V14.00,2013-01-18 19:20:00,
2013-01-18 13:25:00,44.0,31.8,29.71,SSE,158,15.4,15.4,62,0.00,,---,0.00,VWS V14.00,2013-01-18 19:25:00,
2013-01-18 13:30:00,44.0,31.8,29.71,SSW,202,10.9,10.9,62,0.00,,---,0.00,VWS V14.00,2013-01-18 19:30:00,
2013-01-18 13:35:00,44.2,32.0,29.70,SW,225,16.5,16.5,62,0.00,,---,0.00,VWS V14.00,2013-01-18 19:35:00,
2013-01-18 13:40:00,44.4,32.2,29.70,WSW,248,12.0,12.0,62,0.00,,---,0.00,VWS V14.00,2013-01-18 19:40:00,
2013-01-18 13:45:00,44.4,32.2,29.69,WSW,248,14.9,14.9,62,0.00,,---,0.00,VWS V14.00,2013-01-18 19:45:00,
2013-01-18 13:51:00,44.4,32.2,29.69,WSW,248,12.3,15.4,62,0.00,,---,0.00,VWS V14.00,2013-01-18 19:51:00,
2013-01-18 13:56:00,44.4,32.6,29.69,WSW,248,16.3,16.3,63,0.00,,---,0.00,VWS V14.00,2013-01-18 19:56:00,
2013-01-18 14:01:00,44.2,32.4,29.68,WSW,248,15.4,15.4,63,0.00,,---,0.00,VWS V14.00,2013-01-18 20:01:00,
2013-01-18 14:06:00,44.4,32.6,29.68,WSW,248,13.4,13.4,63,0.00,,---,0.00,VWS V14.00,2013-01-18 20:06:00,
2013-01-18 14:11:00,44.2,32.4,29.68,WSW,248,13.4,13.4,63,0.00,,---,0.00,VWS V14.00,2013-01-18 20:11:00,
2013-01-18 14:16:00,44.0,32.2,29.68,WSW,248,14.7,14.7,63,0.00,,---,0.00,VWS V14.00,2013-01-18 20:16:00,
2013-01-18 14:21:00,43.8,32.4,29.68,WSW,248,13.6,13.6,64,0.00,,---,0.00,VWS V14.00,2013-01-18 20:21:00,
2013-01-18 14:27:00,43.8,32.4,29.67,WSW,248,13.1,15.6,64,0.00,,---,0.00,VWS V14.00,2013-01-18 20:27:00,
2013-01-18 14:32:00,43.7,32.3,29.67,WSW,248,16.7,16.7,64,0.00,,---,0.00,VWS V14.00,2013-01-18 20:32:00,
2013-01-18 14:37:00,43.7,32.3,29.67,WSW,248,18.1,18.1,64,0.00,,---,0.00,VWS V14.00,2013-01-18 20:37:00,
2013-01-18 14:42:00,43.5,32.2,29.67,WSW,248,14.7,14.7,64,0.00,,---,0.00,VWS V14.00,2013-01-18 20:42:00,
2013-01-18 14:48:00,43.7,32.7,29.66,WSW,248,11.1,17.0,65,0.00,,---,0.00,VWS V14.00,2013-01-18 20:48:00,
2013-01-18 14:53:00,43.7,32.3,29.66,WSW,248,14.0,14.3,64,0.00,,---,0.00,VWS V14.00,2013-01-18 20:53:00,
2013-01-18 14:58:00,43.5,32.5,29.65,WSW,248,13.6,13.6,65,0.00,,---,0.00,VWS V14.00,2013-01-18 20:58:00,
2013-01-18 15:03:00,43.5,32.5,29.65,WSW,248,12.7,12.7,65,0.00,,---,0.00,VWS V14.00,2013-01-18 21:03:00,
2013-01-18 15:08:00,43.3,32.3,29.65,WSW,248,15.8,15.8,65,0.00,,---,0.00,VWS V14.00,2013-01-18 21:08:00,
2013-01-18 15:13:00,43.3,32.3,29.64,SSW,202,17.2,17.2,65,0.00,,---,0.00,VWS V14.00,2013-01-18 21:13:00,
2013-01-18 15:18:00,43.1,32.2,29.64,WSW,248,13.1,17.0,65,0.00,,---,0.00,VWS V14.00,2013-01-18 21:18:00,
2013-01-18 15:23:00,43.1,32.2,29.64,SSW,202,14.7,14.7,65,0.00,,---,0.00,VWS V14.00,2013-01-18 21:23:00,
2013-01-18 15:28:00,42.9,32.0,29.63,SSW,202,12.7,13.1,65,0.00,,---,0.00,VWS V14.00,2013-01-18 21:28:00,
2013-01-18 15:33:00,42.9,32.0,29.63,WSW,248,19.4,19.6,65,0.00,,---,0.00,VWS V14.00,2013-01-18 21:33:00,
2013-01-18 15:38:00,42.6,31.7,29.63,WSW,248,17.0,17.0,65,0.00,,---,0.00,VWS V14.00,2013-01-18 21:38:00,
2013-01-18 15:43:00,42.6,31.7,29.63,WSW,248,18.1,18.1,65,0.00,,---,0.00,VWS V14.00,2013-01-18 21:43:00,
2013-01-18 15:48:00,42.6,31.7,29.63,SSE,158,15.4,15.4,65,0.00,,---,0.00,VWS V14.00,2013-01-18 21:48:00,
2013-01-18 15:53:00,42.6,31.7,29.63,South,180,9.1,13.6,65,0.00,,---,0.00,VWS V14.00,2013-01-18 21:53:00,
2013-01-18 15:58:00,42.6,31.7,29.63,WSW,248,9.1,15.4,65,0.00,,---,0.00,VWS V14.00,2013-01-18 21:58:00,
2013-01-18 16:03:00,42.4,31.5,29.63,South,180,19.0,19.0,65,0.00,,---,0.00,VWS V14.00,2013-01-18 22:03:00,
2013-01-18 16:08:00,42.4,31.5,29.62,South,180,9.1,10.0,65,0.00,,---,0.00,VWS V14.00,2013-01-18 22:08:00,
2013-01-18 16:13:00,42.0,31.1,29.62,SSE,158,15.2,15.2,65,0.00,,---,0.00,VWS V14.00,2013-01-18 22:13:00,
2013-01-18 16:18:00,41.9,31.0,29.62,WSW,248,14.5,14.5,65,0.00,,---,0.00,VWS V14.00,2013-01-18 22:18:00,
2013-01-18 16:23:00,41.9,31.0,29.62,SSW,202,12.9,14.0,65,0.00,,---,0.00,VWS V14.00,2013-01-18 22:23:00,
2013-01-18 16:28:00,41.7,30.8,29.61,South,180,14.3,14.3,65,0.00,,---,0.00,VWS V14.00,2013-01-18 22:28:00,
2013-01-18 16:33:00,41.5,30.6,29.62,SSW,202,9.6,11.6,65,0.00,,---,0.00,VWS V14.00,2013-01-18 22:33:00,
2013-01-18 16:38:00,41.3,30.4,29.61,South,180,13.6,16.3,65,0.00,,---,0.00,VWS V14.00,2013-01-18 22:38:00,
2013-01-18 16:44:00,41.1,30.2,29.61,South,180,11.6,13.6,65,0.00,,---,0.00,VWS V14.00,2013-01-18 22:44:00,
2013-01-18 16:49:00,41.0,30.5,29.61,SSW,202,16.3,16.3,66,0.00,,---,0.00,VWS V14.00,2013-01-18 22:49:00,
2013-01-18 16:54:00,40.8,30.3,29.61,South,180,20.5,23.0,66,0.00,,---,0.00,VWS V14.00,2013-01-18 22:54:00,
2013-01-18 16:59:00,40.8,30.3,29.61,SSE,158,19.9,20.5,66,0.00,,---,0.00,VWS V14.00,2013-01-18 22:59:00,
2013-01-18 17:04:00,40.6,30.1,29.61,SSW,202,18.7,18.7,66,0.00,,---,0.00,VWS V14.00,2013-01-18 23:04:00,
2013-01-18 17:09:00,40.4,30.0,29.61,SSW,202,13.6,17.2,66,0.00,,---,0.00,VWS V14.00,2013-01-18 23:09:00,
2013-01-18 17:14:00,40.2,29.8,29.60,South,180,14.0,14.0,66,0.00,,---,0.00,VWS V14.00,2013-01-18 23:14:00,
2013-01-18 17:19:00,40.1,29.7,29.60,South,180,13.1,13.1,66,0.00,,---,0.00,VWS V14.00,2013-01-18 23:19:00,
2013-01-18 17:24:00,39.9,29.5,29.60,South,180,11.6,14.3,66,0.00,,---,0.00,VWS V14.00,2013-01-18 23:24:00,
2013-01-18 17:29:00,39.7,29.7,29.60,South,180,12.5,14.5,67,0.00,,---,0.00,VWS V14.00,2013-01-18 23:29:00,
2013-01-18 17:34:00,39.7,29.7,29.59,SSE,158,14.9,14.9,67,0.00,,---,0.00,VWS V14.00,2013-01-18 23:34:00,
2013-01-18 17:39:00,39.5,29.5,29.59,SSE,158,10.2,15.4,67,0.00,,---,0.00,VWS V14.00,2013-01-18 23:39:00,
2013-01-18 17:44:00,39.3,29.3,29.59,SSE,158,14.3,20.8,67,0.00,,---,0.00,VWS V14.00,2013-01-18 23:44:00,
2013-01-18 17:49:00,39.3,29.3,29.59,South,180,9.1,13.4,67,0.00,,---,0.00,VWS V14.00,2013-01-18 23:49:00,
2013-01-18 17:54:00,39.3,29.3,29.59,SSE,158,13.8,20.1,67,0.00,,---,0.00,VWS V14.00,2013-01-18 23:54:00,
2013-01-18 17:59:00,39.3,29.3,29.59,SSE,158,15.6,17.6,67,0.00,,---,0.00,VWS V14.00,2013-01-18 23:59:00,
2013-01-18 18:04:00,39.3,29.3,29.59,South,180,9.8,18.5,67,0.00,,---,0.00,VWS V14.00,2013-01-19 00:04:00,
2013-01-18 18:09:00,39.0,29.0,29.59,South,180,15.8,15.8,67,0.00,,---,0.00,VWS V14.00,2013-01-19 00:09:00,
2013-01-18 18:14:00,39.0,29.0,29.58,South,180,15.2,15.2,67,0.00,,---,0.00,VWS V14.00,2013-01-19 00:14:00,
2013-01-18 18:19:00,39.0,29.0,29.58,South,180,18.3,18.3,67,0.00,,---,0.00,VWS V14.00,2013-01-19 00:19:00,
2013-01-18 18:24:00,39.0,29.0,29.59,South,180,17.8,17.8,67,0.00,,---,0.00,VWS V14.00,2013-01-19 00:24:00,
2013-01-18 18:29:00,39.0,29.0,29.59,SSW,202,22.5,22.5,67,0.00,,---,0.00,VWS V14.00,2013-01-19 00:29:00,
2013-01-18 18:34:00,39.0,29.0,29.58,South,180,12.5,12.7,67,0.00,,---,0.00,VWS V14.00,2013-01-19 00:34:00,
2013-01-18 18:39:00,39.0,29.0,29.58,SSE,158,16.5,16.5,67,0.00,,---,0.00,VWS V14.00,2013-01-19 00:39:00,
2013-01-18 18:44:00,39.0,29.0,29.58,South,180,19.2,19.2,67,0.00,,---,0.00,VWS V14.00,2013-01-19 00:44:00,
2013-01-18 18:49:00,38.8,29.2,29.58,South,180,18.7,18.7,68,0.00,,---,0.00,VWS V14.00,2013-01-19 00:49:00,
2013-01-18 18:54:00,38.8,29.2,29.58,South,180,12.5,13.4,68,0.00,,---,0.00,VWS V14.00,2013-01-19 00:54:00,
2013-01-18 18:59:00,38.8,29.2,29.58,SSE,158,17.2,18.7,68,0.00,,---,0.00,VWS V14.00,2013-01-19 00:59:00,
2013-01-18 19:04:00,38.8,29.2,29.58,SSW,202,14.0,14.0,68,0.00,,---,0.00,VWS V14.00,2013-01-19 01:04:00,
2013-01-18 19:09:00,38.4,28.8,29.58,SSW,202,15.2,17.0,68,0.00,,---,0.00,VWS V14.00,2013-01-19 01:09:00,
2013-01-18 19:14:00,38.4,28.8,29.58,South,180,14.9,14.9,68,0.00,,---,0.00,VWS V14.00,2013-01-19 01:14:00,
2013-01-18 19:19:00,38.4,29.1,29.57,South,180,14.0,14.0,69,0.00,,---,0.00,VWS V14.00,2013-01-19 01:19:00,
2013-01-18 19:24:00,38.4,29.1,29.58,SSW,202,14.7,14.7,69,0.00,,---,0.00,VWS V14.00,2013-01-19 01:24:00,
2013-01-18 19:29:00,38.4,29.1,29.57,SSE,158,9.3,15.8,69,0.00,,---,0.00,VWS V14.00,2013-01-19 01:29:00,
2013-01-18 19:34:00,38.3,29.0,29.57,South,180,10.9,11.8,69,0.00,,---,0.00,VWS V14.00,2013-01-19 01:34:00,
2013-01-18 19:39:00,38.3,29.0,29.57,South,180,11.4,14.3,69,0.00,,---,0.00,VWS V14.00,2013-01-19 01:39:00,
2013-01-18 19:44:00,38.3,29.0,29.57,SW,225,13.4,13.4,69,0.00,,---,0.00,VWS V14.00,2013-01-19 01:44:00,
2013-01-18 19:49:00,38.3,29.0,29.57,SSE,158,13.1,13.1,69,0.00,,---,0.00,VWS V14.00,2013-01-19 01:49:00,
2013-01-18 19:54:00,38.4,29.1,29.57,South,180,10.5,10.7,69,0.00,,---,0.00,VWS V14.00,2013-01-19 01:54:00,
2013-01-18 19:59:00,38.3,29.0,29.57,SSW,202,13.1,13.1,69,0.00,,---,0.00,VWS V14.00,2013-01-19 01:59:00,
2013-01-18 20:04:00,38.3,29.0,29.57,SSE,158,17.0,17.0,69,0.00,,---,0.00,VWS V14.00,2013-01-19 02:04:00,
2013-01-18 20:09:00,38.3,29.0,29.57,South,180,12.9,13.6,69,0.00,,---,0.00,VWS V14.00,2013-01-19 02:09:00,
2013-01-18 20:14:00,38.3,29.0,29.57,South,180,10.0,10.2,69,0.00,,---,0.00,VWS V14.00,2013-01-19 02:14:00,
2013-01-18 20:19:00,38.1,28.8,29.57,South,180,12.7,12.7,69,0.00,,---,0.00,VWS V14.00,2013-01-19 02:19:00,
2013-01-18 20:24:00,38.1,28.8,29.57,SSE,158,10.0,11.1,69,0.00,,---,0.00,VWS V14.00,2013-01-19 02:24:00,
2013-01-18 20:29:00,38.1,28.8,29.56,South,180,10.9,11.6,69,0.00,,---,0.00,VWS V14.00,2013-01-19 02:29:00,
2013-01-18 20:34:00,37.9,28.6,29.56,SSW,202,14.5,14.5,69,0.00,,---,0.00,VWS V14.00,2013-01-19 02:34:00,
2013-01-18 20:39:00,37.9,28.6,29.57,South,180,10.7,10.7,69,0.00,,---,0.00,VWS V14.00,2013-01-19 02:39:00,
2013-01-18 20:44:00,38.1,28.8,29.57,South,180,10.0,10.0,69,0.00,,---,0.00,VWS V14.00,2013-01-19 02:44:00,
2013-01-18 20:49:00,38.1,28.8,29.57,SSW,202,11.4,11.4,69,0.00,,---,0.00,VWS V14.00,2013-01-19 02:49:00,
2013-01-18 20:54:00,38.1,28.8,29.57,SSW,202,14.7,14.7,69,0.00,,---,0.00,VWS V14.00,2013-01-19 02:54:00,
2013-01-18 20:59:00,37.9,28.6,29.57,SSW,202,8.9,10.5,69,0.00,,---,0.00,VWS V14.00,2013-01-19 02:59:00,
2013-01-18 21:04:00,37.9,28.6,29.57,SW,225,11.6,11.6,69,0.00,,---,0.00,VWS V14.00,2013-01-19 03:04:00,
2013-01-18 21:09:00,37.9,28.6,29.58,South,180,14.3,14.3,69,0.00,,---,0.00,VWS V14.00,2013-01-19 03:09:00,
2013-01-18 21:14:00,37.9,28.6,29.57,SSW,202,9.1,12.7,69,0.00,,---,0.00,VWS V14.00,2013-01-19 03:14:00,
2013-01-18 21:19:00,37.9,28.6,29.58,SSW,202,12.7,12.7,69,0.00,,---,0.00,VWS V14.00,2013-01-19 03:19:00,
2013-01-18 21:24:00,37.9,28.6,29.58,SSW,202,8.9,10.2,69,0.00,,---,0.00,VWS V14.00,2013-01-19 03:24:00,
2013-01-18 21:29:00,37.9,28.6,29.57,SW,225,12.9,12.9,69,0.00,,---,0.00,VWS V14.00,2013-01-19 03:29:00,
2013-01-18 21:34:00,37.9,28.6,29.57,SSW,202,10.5,12.0,69,0.00,,---,0.00,VWS V14.00,2013-01-19 03:34:00,
2013-01-18 21:39:00,37.9,28.6,29.58,SSW,202,10.2,12.7,69,0.00,,---,0.00,VWS V14.00,2013-01-19 03:39:00,
2013-01-18 21:45:00,37.9,28.6,29.57,SSW,202,10.9,10.9,69,0.00,,---,0.00,VWS V14.00,2013-01-19 03:45:00,
2013-01-18 21:50:00,37.9,28.6,29.58,SSW,202,8.2,8.2,69,0.00,,---,0.00,VWS V14.00,2013-01-19 03:50:00,
2013-01-18 21:55:00,37.7,28.5,29.58,SSW,202,10.2,10.2,69,0.00,,---,0.00,VWS V14.00,2013-01-19 03:55:00,
2013-01-18 22:00:00,37.7,28.5,29.58,SSW,202,12.5,12.5,69,0.00,,---,0.00,VWS V14.00,2013-01-19 04:00:00,
2013-01-18 22:05:00,37.5,28.3,29.58,SSW,202,11.8,11.8,69,0.00,,---,0.00,VWS V14.00,2013-01-19 04:05:00,
2013-01-18 22:10:00,37.5,28.3,29.58,SSW,202,11.8,11.8,69,0.00,,---,0.00,VWS V14.00,2013-01-19 04:10:00,
2013-01-18 22:15:00,37.4,28.2,29.58,SSW,202,9.6,9.6,69,0.00,,---,0.00,VWS V14.00,2013-01-19 04:15:00,
2013-01-18 22:20:00,37.2,28.0,29.58,SSW,202,10.2,10.2,69,0.00,,---,0.00,VWS V14.00,2013-01-19 04:20:00,
2013-01-18 22:25:00,37.2,28.3,29.58,SSW,202,11.4,11.4,70,0.00,,---,0.00,VWS V14.00,2013-01-19 04:25:00,
2013-01-18 22:30:00,37.2,28.3,29.58,SSW,202,10.2,10.5,70,0.00,,---,0.00,VWS V14.00,2013-01-19 04:30:00,
2013-01-18 22:35:00,37.0,28.1,29.58,SSW,202,11.8,11.8,70,0.00,,---,0.00,VWS V14.00,2013-01-19 04:35:00,
2013-01-18 22:40:00,37.0,28.1,29.57,SSW,202,9.1,9.3,70,0.00,,---,0.00,VWS V14.00,2013-01-19 04:40:00,
2013-01-18 22:45:00,36.8,28.0,29.57,SSW,202,10.0,10.0,70,0.00,,---,0.00,VWS V14.00,2013-01-19 04:45:00,
2013-01-18 22:50:00,36.8,28.0,29.57,SW,225,8.7,9.8,70,0.00,,---,0.00,VWS V14.00,2013-01-19 04:50:00,
2013-01-18 22:55:00,36.6,27.8,29.57,South,180,9.8,9.8,70,0.00,,---,0.00,VWS V14.00,2013-01-19 04:55:00,
2013-01-18 23:01:00,36.6,27.8,29.57,SW,225,9.6,9.6,70,0.00,,---,0.00,VWS V14.00,2013-01-19 05:01:00,
2013-01-18 23:03:00,36.6,28.1,29.57,SSW,202,11.1,11.1,71,0.00,,---,0.00,VWS V14.00,2013-01-19 05:03:00,
2013-01-18 23:04:00,36.6,28.1,29.58,SSW,202,9.3,11.1,71,0.00,,---,0.00,VWS V14.00,2013-01-19 05:04:00,
2013-01-18 23:09:00,36.6,28.1,29.57,SW,225,11.1,11.1,71,0.00,,---,0.00,VWS V14.00,2013-01-19 05:09:00,
2013-01-18 23:14:00,36.6,28.1,29.57,SSW,202,13.6,13.6,71,0.00,,---,0.00,VWS V14.00,2013-01-19 05:14:00,
2013-01-18 23:19:00,36.6,28.1,29.57,SSW,202,9.8,10.9,71,0.00,,---,0.00,VWS V14.00,2013-01-19 05:19:00,
2013-01-18 23:24:00,36.6,28.1,29.57,SSW,202,8.0,9.6,71,0.00,,---,0.00,VWS V14.00,2013-01-19 05:24:00,
2013-01-18 23:29:00,36.5,28.0,29.57,SSW,202,9.1,9.1,71,0.00,,---,0.00,VWS V14.00,2013-01-19 05:29:00,
2013-01-18 23:35:00,36.5,28.0,29.57,SSW,202,10.2,10.2,71,0.00,,---,0.00,VWS V14.00,2013-01-19 05:35:00,
2013-01-18 23:40:00,36.5,28.0,29.57,SSW,202,8.7,10.7,71,0.00,,---,0.00,VWS V14.00,2013-01-19 05:40:00,
2013-01-18 23:45:00,36.5,28.0,29.57,SSW,202,13.1,13.1,71,0.00,,---,0.00,VWS V14.00,2013-01-19 05:45:00,
2013-01-18 23:50:00,36.5,28.0,29.57,SSW,202,8.9,9.8,71,0.00,,---,0.00,VWS V14.00,2013-01-19 05:50:00,
2013-01-18 23:56:00,36.5,28.0,29.57,SSW,202,10.5,10.5,71,0.00,,---,0.00,VWS V14.00,2013-01-19 05:56:00,